createdAt,value
2023-11-30T00:02:09.547Z,4.03
2023-11-30T00:04:37.751Z,4.07
2023-11-30T00:07:11.334Z,4.53
2023-11-30T00:09:39.429Z,4.00
2023-11-30T00:12:07.800Z,5.10
2023-11-30T00:14:35.630Z,7.03
2023-11-30T00:17:04.847Z,5.43
2023-11-30T00:19:32.808Z,4.97
2023-11-30T00:22:00.639Z,6.33
2023-11-30T00:24:28.869Z,4.80
2023-11-30T00:26:56.756Z,6.07
2023-11-30T00:29:24.592Z,5.67
2023-11-30T00:31:52.478Z,4.63
2023-11-30T00:34:21.645Z,5.80
2023-11-30T00:36:49.559Z,5.17
2023-11-30T00:39:17.511Z,6.13
2023-11-30T00:41:45.747Z,8.10
2023-11-30T00:44:14.043Z,5.70
2023-11-30T00:46:42.073Z,7.47
2023-11-30T00:49:09.919Z,5.60
2023-11-30T00:51:39.080Z,4.63
2023-11-30T00:54:07.037Z,4.90
2023-11-30T00:56:34.875Z,5.20
2023-11-30T00:59:03.005Z,5.87
2023-11-30T01:01:30.909Z,4.97
2023-11-30T01:03:58.954Z,3.83
2023-11-30T01:06:26.811Z,4.00
2023-11-30T01:08:56.380Z,3.60
2023-11-30T01:11:24.204Z,4.53
2023-11-30T01:13:52.209Z,4.30
2023-11-30T01:16:20.088Z,5.47
2023-11-30T01:18:48.102Z,4.30
2023-11-30T01:21:15.963Z,4.17
2023-11-30T01:23:43.959Z,4.67
2023-11-30T01:26:13.303Z,6.67
2023-11-30T01:28:41.974Z,4.87
2023-11-30T01:31:10.305Z,5.00
2023-11-30T01:33:38.635Z,4.87
2023-11-30T01:36:07.090Z,4.53
2023-11-30T01:38:35.099Z,3.87
2023-11-30T01:41:02.901Z,3.93
2023-11-30T01:43:32.415Z,3.80
2023-11-30T01:46:03.780Z,4.77
2023-11-30T01:48:33.635Z,4.50
2023-11-30T01:51:04.362Z,4.73
2023-11-30T01:53:32.634Z,5.03
2023-11-30T01:56:00.940Z,4.93
2023-11-30T01:58:29.235Z,5.13
2023-11-30T02:01:00.017Z,5.40
2023-11-30T02:03:28.764Z,5.23
2023-11-30T02:05:56.826Z,6.17
2023-11-30T02:08:24.646Z,5.17
2023-11-30T02:10:52.606Z,5.97
2023-11-30T02:13:20.480Z,5.17
2023-11-30T02:15:48.336Z,5.10
2023-11-30T02:18:17.901Z,5.07
2023-11-30T02:20:45.958Z,6.33
2023-11-30T02:23:15.131Z,7.47
2023-11-30T02:25:43.223Z,5.80
2023-11-30T02:28:11.022Z,8.00
2023-11-30T02:30:39.333Z,8.07
2023-11-30T02:33:07.191Z,7.80
2023-11-30T02:35:35.684Z,7.77
2023-11-30T02:38:04.023Z,6.43
2023-11-30T02:40:33.202Z,5.83
2023-11-30T02:43:01.098Z,6.57
2023-11-30T02:45:29.031Z,5.97
2023-11-30T02:47:56.960Z,5.43
2023-11-30T02:50:25.031Z,6.80
2023-11-30T02:52:53.878Z,8.37
2023-11-30T02:55:22.921Z,7.53
2023-11-30T02:57:52.169Z,6.47
2023-11-30T03:00:20.967Z,7.37
2023-11-30T03:02:48.948Z,7.20
2023-11-30T03:05:16.812Z,6.70
2023-11-30T03:07:44.643Z,5.60
2023-11-30T03:10:12.610Z,6.33
2023-11-30T03:12:40.455Z,4.80
2023-11-30T03:15:11.408Z,6.37
2023-11-30T03:17:39.821Z,4.83
2023-11-30T03:20:09.340Z,7.93
2023-11-30T03:22:37.931Z,5.20
2023-11-30T03:25:06.661Z,6.23
2023-11-30T03:27:34.717Z,6.57
2023-11-30T03:30:02.700Z,5.10
2023-11-30T03:32:32.105Z,5.77
2023-11-30T03:35:00.491Z,6.13
2023-11-30T03:37:28.314Z,5.30
2023-11-30T03:39:56.077Z,4.90
2023-11-30T03:42:24.484Z,6.53
2023-11-30T03:44:52.300Z,4.87
2023-11-30T03:47:20.154Z,4.03
2023-11-30T03:49:49.371Z,5.07
2023-11-30T03:52:17.201Z,4.80
2023-11-30T03:54:45.057Z,5.97
2023-11-30T03:57:12.954Z,5.90
2023-11-30T03:59:41.707Z,6.67
2023-11-30T04:02:09.576Z,6.67
2023-11-30T04:04:39.478Z,7.50
2023-11-30T04:07:08.748Z,7.00
2023-11-30T04:09:38.931Z,7.47
2023-11-30T04:12:07.207Z,8.37
2023-11-30T04:14:35.614Z,8.70
2023-11-30T04:17:05.478Z,6.30
2023-11-30T04:19:33.397Z,6.60
2023-11-30T04:22:01.649Z,6.33
2023-11-30T04:24:30.878Z,4.80
2023-11-30T04:26:58.802Z,6.33
2023-11-30T04:29:26.761Z,6.57
2023-11-30T04:31:54.888Z,5.20
2023-11-30T04:34:23.508Z,7.57
2023-11-30T04:36:51.439Z,10.00
2023-11-30T04:39:21.532Z,11.17
2023-11-30T04:41:51.503Z,8.60
2023-11-30T04:44:23.160Z,8.63
2023-11-30T04:46:51.798Z,7.53
2023-11-30T04:49:20.100Z,8.13
2023-11-30T04:51:48.028Z,5.80
2023-11-30T04:54:17.461Z,5.13
2023-11-30T04:56:45.376Z,5.50
2023-11-30T04:59:14.520Z,5.70
2023-11-30T05:01:42.515Z,5.27
2023-11-30T05:04:10.641Z,5.57
2023-11-30T05:06:38.578Z,4.80
2023-11-30T05:09:07.042Z,5.73
2023-11-30T05:11:34.939Z,6.30
2023-11-30T05:14:02.759Z,5.67
2023-11-30T05:16:32.059Z,5.60
2023-11-30T05:18:59.945Z,4.70
2023-11-30T05:21:27.917Z,4.17
2023-11-30T05:23:55.956Z,6.20
2023-11-30T05:26:24.102Z,6.00
2023-11-30T05:28:52.471Z,4.10
2023-11-30T05:31:20.344Z,4.50
2023-11-30T05:33:49.523Z,4.20
2023-11-30T05:36:17.705Z,4.60
2023-11-30T05:38:45.527Z,4.57
2023-11-30T05:41:13.660Z,5.13
2023-11-30T05:43:41.734Z,4.80
2023-11-30T05:46:09.661Z,4.23
2023-11-30T05:48:38.106Z,6.23
2023-11-30T05:51:08.459Z,4.70
2023-11-30T05:53:37.005Z,4.83
2023-11-30T05:56:05.312Z,5.27
2023-11-30T05:58:33.557Z,5.73
2023-11-30T06:01:01.370Z,4.87
2023-11-30T06:03:29.435Z,5.10
2023-11-30T06:05:57.415Z,6.80
2023-11-30T06:08:26.993Z,4.90
2023-11-30T06:10:54.881Z,5.00
2023-11-30T06:13:25.359Z,5.83
2023-11-30T06:15:54.207Z,6.93
2023-11-30T06:18:22.157Z,5.70
2023-11-30T06:20:50.079Z,6.13
2023-11-30T06:23:17.918Z,5.57
2023-11-30T06:25:47.096Z,5.43
2023-11-30T06:28:14.895Z,5.77
2023-11-30T06:30:42.762Z,5.53
2023-11-30T06:33:10.661Z,7.20
2023-11-30T06:35:38.594Z,5.90
2023-11-30T06:38:06.392Z,6.03
2023-11-30T06:40:34.272Z,6.07
2023-11-30T06:43:03.483Z,5.80
2023-11-30T06:45:31.403Z,6.70
2023-11-30T06:47:59.418Z,5.83
2023-11-30T06:50:27.544Z,6.50
2023-11-30T06:52:55.645Z,6.23
2023-11-30T06:55:24.109Z,6.80
2023-11-30T06:57:51.961Z,6.03
2023-11-30T07:00:21.508Z,7.13
2023-11-30T07:02:49.354Z,7.73
2023-11-30T07:05:17.197Z,5.70
2023-11-30T07:07:45.407Z,6.37
2023-11-30T07:10:14.101Z,6.23
2023-11-30T07:12:42.069Z,6.53
2023-11-30T07:15:10.471Z,6.60
2023-11-30T07:17:39.711Z,6.93
2023-11-30T07:20:09.026Z,7.57
2023-11-30T07:22:36.876Z,5.93
2023-11-30T07:25:05.364Z,6.67
2023-11-30T07:27:33.351Z,5.33
2023-11-30T07:30:02.139Z,5.20
2023-11-30T07:32:30.211Z,7.10
2023-11-30T07:34:59.475Z,9.27
2023-11-30T07:37:27.298Z,6.90
2023-11-30T07:39:55.058Z,8.63
2023-11-30T07:42:29.625Z,9.63
2023-11-30T07:45:03.702Z,10.73
2023-11-30T07:47:31.962Z,8.70
2023-11-30T07:50:01.426Z,10.33
2023-11-30T07:52:30.247Z,8.33
2023-11-30T07:54:58.215Z,8.73
2023-11-30T07:57:26.186Z,7.13
2023-11-30T07:59:54.208Z,7.83
2023-11-30T08:02:22.494Z,6.57
2023-11-30T08:04:50.403Z,8.27
2023-11-30T08:07:20.756Z,7.10
2023-11-30T08:09:49.098Z,6.73
2023-11-30T08:12:16.896Z,7.00
2023-11-30T08:14:44.698Z,5.97
2023-11-30T08:17:12.612Z,5.10
2023-11-30T08:19:40.796Z,7.43
2023-11-30T08:22:08.671Z,7.93
2023-11-30T08:24:38.318Z,8.37
2023-11-30T08:27:07.518Z,8.43
2023-11-30T08:29:37.941Z,7.70
2023-11-30T08:32:06.603Z,7.30
2023-11-30T08:34:35.048Z,6.50
2023-11-30T08:37:02.926Z,7.57
2023-11-30T08:39:31.420Z,8.77
2023-11-30T08:42:00.728Z,7.33
2023-11-30T08:44:28.552Z,7.23
2023-11-30T08:46:57.075Z,6.77
2023-11-30T08:49:25.044Z,7.00
2023-11-30T08:51:53.097Z,5.87
2023-11-30T08:54:22.406Z,6.10
2023-11-30T08:56:50.920Z,7.00
2023-11-30T08:59:20.764Z,6.63
2023-11-30T09:01:49.759Z,9.43
2023-11-30T09:04:17.840Z,10.93
2023-11-30T09:06:45.796Z,9.10
2023-11-30T09:09:13.787Z,11.03
2023-11-30T09:11:42.252Z,10.43
2023-11-30T09:14:10.055Z,10.00
2023-11-30T09:16:39.589Z,11.60
2023-11-30T09:19:07.520Z,9.43
2023-11-30T09:21:35.441Z,9.17
2023-11-30T09:24:05.725Z,10.87
2023-11-30T09:26:33.810Z,10.13
2023-11-30T09:29:01.647Z,11.27
2023-11-30T09:31:29.567Z,9.70
2023-11-30T09:33:58.811Z,10.87
2023-11-30T09:36:26.773Z,9.20
2023-11-30T09:38:54.638Z,9.20
2023-11-30T09:41:24.680Z,13.60
2023-11-30T09:43:53.369Z,21.07
2023-11-30T09:46:21.215Z,21.77
2023-11-30T09:48:49.962Z,17.97
2023-11-30T09:51:23.486Z,16.40
2023-11-30T09:53:51.385Z,16.40
2023-11-30T09:56:19.214Z,13.03
2023-11-30T09:58:47.069Z,12.10
2023-11-30T10:01:14.958Z,10.83
2023-11-30T10:03:43.577Z,9.80
2023-11-30T10:06:11.963Z,9.63
2023-11-30T10:08:42.204Z,9.70
2023-11-30T10:11:11.136Z,9.67
2023-11-30T10:13:39.278Z,9.53
2023-11-30T10:16:08.249Z,11.53
2023-11-30T10:18:36.477Z,12.27
2023-11-30T10:21:04.658Z,10.17
2023-11-30T10:23:32.637Z,9.40
2023-11-30T10:26:04.071Z,9.63
2023-11-30T10:28:32.668Z,8.23
2023-11-30T10:31:04.165Z,8.67
2023-11-30T10:33:38.447Z,9.07
2023-11-30T10:36:08.862Z,8.43
2023-11-30T10:38:41.004Z,8.03
2023-11-30T10:41:14.393Z,8.03
2023-11-30T10:43:49.608Z,10.23
2023-11-30T10:46:18.005Z,9.70
2023-11-30T10:48:45.962Z,9.50
2023-11-30T10:51:14.755Z,9.07
2023-11-30T10:53:51.119Z,8.87
2023-11-30T10:56:20.686Z,9.50
2023-11-30T10:58:49.079Z,10.83
2023-11-30T11:01:16.987Z,12.90
2023-11-30T11:03:48.809Z,12.30
2023-11-30T11:06:17.448Z,11.57
2023-11-30T11:09:01.937Z,13.40
2023-11-30T11:11:32.263Z,11.70
2023-11-30T11:14:00.828Z,12.00
2023-11-30T11:16:36.723Z,13.73
2023-11-30T11:19:06.454Z,12.53
2023-11-30T11:21:38.509Z,9.70
2023-11-30T11:24:08.076Z,13.37
2023-11-30T11:26:46.028Z,11.20
2023-11-30T11:29:16.480Z,12.13
2023-11-30T11:31:48.009Z,11.07
2023-11-30T11:34:16.771Z,9.20
2023-11-30T11:36:44.829Z,10.23
2023-11-30T11:39:14.545Z,12.20
2023-11-30T11:41:42.742Z,13.30
2023-11-30T11:44:11.987Z,13.07
2023-11-30T11:46:40.721Z,12.83
2023-11-30T11:49:08.854Z,12.33
2023-11-30T11:51:44.551Z,11.40
2023-11-30T11:54:20.308Z,11.00
2023-11-30T11:56:49.909Z,10.20
2023-11-30T11:59:27.499Z,11.50
2023-11-30T12:01:57.758Z,12.90
2023-11-30T12:04:30.619Z,10.70
2023-11-30T12:06:59.109Z,10.20
2023-11-30T12:09:27.124Z,11.57
2023-11-30T12:11:58.119Z,11.23
2023-11-30T12:14:29.170Z,11.87
2023-11-30T12:16:57.429Z,13.13
2023-11-30T12:19:25.292Z,13.97
2023-11-30T12:21:53.559Z,14.40
2023-11-30T12:24:22.448Z,13.07
2023-11-30T12:26:50.870Z,11.47
2023-11-30T12:29:18.985Z,12.07
2023-11-30T12:31:48.492Z,11.13
2023-11-30T12:34:17.201Z,12.80
2023-11-30T12:36:45.135Z,10.70
2023-11-30T12:39:15.373Z,10.97
2023-11-30T12:41:44.793Z,11.10
2023-11-30T12:44:12.648Z,13.13
2023-11-30T12:46:40.817Z,10.67
2023-11-30T12:49:10.048Z,11.97
2023-11-30T12:51:37.951Z,12.87
2023-11-30T12:54:05.823Z,12.47
2023-11-30T12:56:34.181Z,12.80
2023-11-30T12:59:02.126Z,13.47
2023-11-30T13:01:30.079Z,12.37
2023-11-30T13:03:58.684Z,13.87
2023-11-30T13:06:28.016Z,12.87
2023-11-30T13:08:56.260Z,13.13
2023-11-30T13:11:24.409Z,14.07
2023-11-30T13:13:55.636Z,13.97
2023-11-30T13:16:23.826Z,14.27
2023-11-30T13:18:51.799Z,10.93
2023-11-30T13:21:19.828Z,11.77
2023-11-30T13:23:49.012Z,11.93
2023-11-30T13:26:19.424Z,13.00
2023-11-30T13:28:52.021Z,9.90
2023-11-30T13:31:21.749Z,11.00
2023-11-30T13:33:49.995Z,10.93
2023-11-30T13:36:18.554Z,11.30
2023-11-30T13:38:46.461Z,12.50
2023-11-30T13:41:15.672Z,11.03
2023-11-30T13:43:43.554Z,9.93
2023-11-30T13:46:14.241Z,11.60
2023-11-30T13:48:42.870Z,11.23
2023-11-30T13:51:11.744Z,8.47
2023-11-30T13:53:40.613Z,8.60
2023-11-30T13:56:09.655Z,11.77
2023-11-30T13:58:39.230Z,12.57
2023-11-30T14:01:07.518Z,11.33
2023-11-30T14:03:36.369Z,12.33
2023-11-30T14:06:05.320Z,11.90
2023-11-30T14:08:33.408Z,13.80
2023-11-30T14:11:01.988Z,11.50
2023-11-30T14:13:29.984Z,12.57
2023-11-30T14:15:59.425Z,10.93
2023-11-30T14:18:28.061Z,11.73
2023-11-30T14:20:55.913Z,10.90
2023-11-30T14:23:24.944Z,11.30
2023-11-30T14:25:52.857Z,12.27
2023-11-30T14:28:22.607Z,10.90
2023-11-30T14:30:50.859Z,11.10
2023-11-30T14:33:20.278Z,12.63
2023-11-30T14:35:48.656Z,12.43
2023-11-30T14:38:16.700Z,16.03
2023-11-30T14:40:44.773Z,14.53
2023-11-30T14:43:12.712Z,12.30
2023-11-30T14:45:40.624Z,12.27
2023-11-30T14:48:08.542Z,11.27
2023-11-30T14:50:37.766Z,11.70
2023-11-30T14:53:06.076Z,10.50
2023-11-30T14:55:34.775Z,9.70
2023-11-30T14:58:04.731Z,9.40
2023-11-30T15:00:32.790Z,8.77
2023-11-30T15:03:03.144Z,8.30
2023-11-30T15:05:31.529Z,8.20
2023-11-30T15:08:00.898Z,7.53
2023-11-30T15:10:29.075Z,7.17
2023-11-30T15:12:56.959Z,7.30
2023-11-30T15:15:25.446Z,7.97
2023-11-30T15:17:54.093Z,8.77
2023-11-30T15:20:24.038Z,9.53
2023-11-30T15:22:52.759Z,7.40
2023-11-30T15:25:22.074Z,7.37
2023-11-30T15:27:50.724Z,6.93
2023-11-30T15:30:19.751Z,6.60
2023-11-30T15:32:47.743Z,8.93
2023-11-30T15:35:16.394Z,6.50
2023-11-30T15:37:49.300Z,8.23
2023-11-30T15:40:18.102Z,8.73
2023-11-30T15:42:47.625Z,7.63
2023-11-30T15:45:18.129Z,7.10
2023-11-30T15:47:46.555Z,6.80
2023-11-30T15:50:14.472Z,6.97
2023-11-30T15:52:43.259Z,7.80
2023-11-30T15:55:12.758Z,6.27
2023-11-30T15:57:40.846Z,7.63
2023-11-30T16:00:11.263Z,7.47
2023-11-30T16:02:42.312Z,6.10
2023-11-30T16:05:10.779Z,6.23
2023-11-30T16:07:38.635Z,8.13
2023-11-30T16:10:07.677Z,8.77
2023-11-30T16:12:35.590Z,10.63
2023-11-30T16:15:03.648Z,9.50
2023-11-30T16:17:32.830Z,8.83
2023-11-30T16:20:01.741Z,9.13
2023-11-30T16:22:29.991Z,9.80
2023-11-30T16:24:58.640Z,9.30
2023-11-30T16:27:27.546Z,8.97
2023-11-30T16:29:55.985Z,9.43
2023-11-30T16:32:25.065Z,8.70
2023-11-30T16:34:54.212Z,9.00
2023-11-30T16:37:22.035Z,8.43
2023-11-30T16:39:49.897Z,9.00
2023-11-30T16:42:17.768Z,9.53
2023-11-30T16:44:46.003Z,9.67
2023-11-30T16:47:14.331Z,9.40
2023-11-30T16:49:42.182Z,9.90
2023-11-30T16:52:11.529Z,9.33
2023-11-30T16:54:40.741Z,9.03
2023-11-30T16:57:08.626Z,9.27
2023-11-30T16:59:36.609Z,8.33
2023-11-30T17:02:04.843Z,10.57
2023-11-30T17:04:33.073Z,11.30
2023-11-30T17:07:00.933Z,10.33
2023-11-30T17:09:30.398Z,10.93
2023-11-30T17:11:58.385Z,9.80
2023-11-30T17:14:26.441Z,11.83
2023-11-30T17:16:54.316Z,13.40
2023-11-30T17:19:22.204Z,12.43
2023-11-30T17:21:51.948Z,11.27
2023-11-30T17:24:20.792Z,12.23
2023-11-30T17:26:53.640Z,12.07
2023-11-30T17:29:21.564Z,12.60
2023-11-30T17:31:49.366Z,9.30
2023-11-30T17:34:17.400Z,11.47
2023-11-30T17:36:45.357Z,10.37
2023-11-30T17:39:17.702Z,10.60
2023-11-30T17:41:46.169Z,11.80
2023-11-30T17:44:15.311Z,10.77
2023-11-30T17:46:44.025Z,12.30
2023-11-30T17:49:12.210Z,12.13
2023-11-30T17:51:40.143Z,11.13
2023-11-30T17:54:08.067Z,11.50
2023-11-30T17:56:36.165Z,13.50
2023-11-30T17:59:04.417Z,16.80
2023-11-30T18:01:33.727Z,12.97
2023-11-30T18:04:01.884Z,14.70
2023-11-30T18:06:30.078Z,13.87
2023-11-30T18:08:57.931Z,13.67
2023-11-30T18:11:25.786Z,14.90
2023-11-30T18:13:53.970Z,13.70
2023-11-30T18:16:21.911Z,12.73
2023-11-30T18:18:51.280Z,10.63
2023-11-30T18:21:19.306Z,13.97
2023-11-30T18:23:47.996Z,11.13
2023-11-30T18:26:16.610Z,13.63
2023-11-30T18:28:44.480Z,11.00
2023-11-30T18:31:20.269Z,13.50
2023-11-30T18:33:51.804Z,13.40
2023-11-30T18:36:20.190Z,14.03
2023-11-30T18:38:51.278Z,13.93
2023-11-30T18:41:20.421Z,14.10
2023-11-30T18:43:49.317Z,12.83
2023-11-30T18:46:17.451Z,14.30
2023-11-30T18:48:45.484Z,13.13
2023-11-30T18:51:14.670Z,14.30
2023-11-30T18:53:42.554Z,12.43
2023-11-30T18:56:11.089Z,12.37
2023-11-30T18:58:39.704Z,12.87
2023-11-30T19:01:08.050Z,11.00
2023-11-30T19:03:36.130Z,11.93
2023-11-30T19:06:04.414Z,12.23
2023-11-30T19:08:33.734Z,12.87
2023-11-30T19:11:01.517Z,12.13
2023-11-30T19:13:29.342Z,12.50
2023-11-30T19:15:57.192Z,11.87
2023-11-30T19:18:25.192Z,10.93
2023-11-30T19:20:53.041Z,11.37
2023-11-30T19:23:20.868Z,13.20
2023-11-30T19:25:50.006Z,14.17
2023-11-30T19:28:17.835Z,13.63
2023-11-30T19:30:46.360Z,13.77
2023-11-30T19:33:14.611Z,14.27
2023-11-30T19:35:42.507Z,14.70
2023-11-30T19:38:10.378Z,12.17
2023-11-30T19:40:38.211Z,13.60
2023-11-30T19:43:07.732Z,14.77
2023-11-30T19:45:36.060Z,16.70
2023-11-30T19:48:04.048Z,13.30
2023-11-30T19:50:35.442Z,15.10
2023-11-30T19:53:05.536Z,13.20
2023-11-30T19:55:33.413Z,12.93
2023-11-30T19:58:01.300Z,13.20
2023-11-30T20:00:30.481Z,15.33
2023-11-30T20:02:58.743Z,14.77
2023-11-30T20:05:26.567Z,14.37
2023-11-30T20:07:54.371Z,14.93
2023-11-30T20:10:22.452Z,14.77
2023-11-30T20:12:52.106Z,12.13
2023-11-30T20:15:21.206Z,13.20
2023-11-30T20:17:50.621Z,13.07
2023-11-30T20:20:18.685Z,13.57
2023-11-30T20:22:46.994Z,14.40
2023-11-30T20:25:15.142Z,14.80
2023-11-30T20:27:43.816Z,13.90
2023-11-30T20:30:13.161Z,14.50
2023-11-30T20:32:42.313Z,13.60
2023-11-30T20:35:11.980Z,12.33
2023-11-30T20:37:40.296Z,13.80
2023-11-30T20:40:09.380Z,14.73
2023-11-30T20:42:37.950Z,10.90
2023-11-30T20:45:06.884Z,11.27
2023-11-30T20:47:35.197Z,11.67
2023-11-30T20:50:03.471Z,13.17
2023-11-30T20:52:33.478Z,10.70
2023-11-30T20:55:01.285Z,12.40
2023-11-30T20:57:29.160Z,12.13
2023-11-30T20:59:57.116Z,12.73
2023-11-30T21:02:25.074Z,13.30
2023-11-30T21:04:53.009Z,12.47
2023-11-30T21:07:20.819Z,13.43
2023-11-30T21:09:50.006Z,11.97
2023-11-30T21:12:18.332Z,12.30
2023-11-30T21:14:46.273Z,14.73
2023-11-30T21:17:14.108Z,12.33
2023-11-30T21:19:41.969Z,11.63
2023-11-30T21:22:10.699Z,11.80
2023-11-30T21:24:39.485Z,10.27
2023-11-30T21:27:08.840Z,11.87
2023-11-30T21:29:37.031Z,12.10
2023-11-30T21:32:05.523Z,13.17
2023-11-30T21:34:33.929Z,11.67
2023-11-30T21:37:01.841Z,12.30
2023-11-30T21:39:31.461Z,13.20
2023-11-30T21:41:59.571Z,13.30
2023-11-30T21:44:28.958Z,13.57
2023-11-30T21:46:56.898Z,14.40
2023-11-30T21:49:24.721Z,15.47
2023-11-30T21:51:53.049Z,14.67
2023-11-30T21:56:48.772Z,14.90
2023-11-30T21:59:16.779Z,12.93
2023-11-30T22:01:46.287Z,15.23
2023-11-30T22:04:14.372Z,13.13
2023-11-30T22:06:44.144Z,15.10
2023-11-30T22:09:12.034Z,13.20
2023-11-30T22:11:44.385Z,13.17
2023-11-30T22:14:12.732Z,12.43
2023-11-30T22:16:41.433Z,11.47
2023-11-30T22:19:10.849Z,13.30
2023-11-30T22:21:38.952Z,12.73
2023-11-30T22:24:07.402Z,11.23
2023-11-30T22:26:35.279Z,10.63
2023-11-30T22:29:03.511Z,12.10
2023-11-30T22:31:34.647Z,13.30
2023-11-30T22:34:03.025Z,11.13
2023-11-30T22:36:32.395Z,13.20
2023-11-30T22:39:00.357Z,10.17
2023-11-30T22:41:28.215Z,10.20
2023-11-30T22:43:56.022Z,10.60
2023-11-30T22:46:24.274Z,12.27
2023-11-30T22:48:52.560Z,12.20
2023-11-30T22:51:21.183Z,10.23
2023-11-30T22:53:50.519Z,8.13
2023-11-30T22:56:19.358Z,11.03
2023-11-30T22:58:47.629Z,11.43
2023-11-30T23:01:16.533Z,9.93
2023-11-30T23:03:45.752Z,11.40
2023-11-30T23:06:15.461Z,10.30
2023-11-30T23:08:43.584Z,10.77
2023-11-30T23:11:13.439Z,13.00
2023-11-30T23:13:41.470Z,12.43
2023-11-30T23:16:12.422Z,12.43
2023-11-30T23:18:40.448Z,11.87
2023-11-30T23:21:09.488Z,14.30
2023-11-30T23:23:37.347Z,14.13
2023-11-30T23:26:05.733Z,12.93
2023-11-30T23:28:35.101Z,12.93
2023-11-30T23:31:03.086Z,12.10
2023-11-30T23:33:31.108Z,12.47
2023-11-30T23:35:59.275Z,12.60
2023-11-30T23:38:27.084Z,11.40
2023-11-30T23:40:54.998Z,10.70
2023-11-30T23:43:22.849Z,12.30
2023-11-30T23:45:52.272Z,12.40
2023-11-30T23:48:20.166Z,11.97
2023-11-30T23:50:47.992Z,15.67
2023-11-30T23:53:15.883Z,15.03
2023-11-30T23:55:43.934Z,14.97
2023-11-30T23:58:11.755Z,15.67
